Time;durP1;ratioP1;P1;durP2;ratioP2;P2;SDS_P1;SDS_P2;PMS_P1;PMS_P2;Temp;Humidity;BMP_temperature;BMP_pressure;BME280_temperature;BME280_humidity;BME280_pressure;Samples;Min_cycle;Max_cycle;Signal;HPM_P1;HPM_P2
2022/08/31 00:06:14;;;;;;;;;;;25.10;99.90;;;;;;5069902;28;19935;-73
2022/08/31 00:08:40;;;;;;;;;;;25.10;99.90;;;;;;5075926;28;19919;-74
2022/08/31 00:11:08;;;;;;;;;;;25.00;99.90;;;;;;5080962;28;19908;-73
2022/08/31 00:13:35;;;;;;;;;;;25.10;99.90;;;;;;5069554;28;20247;-72
2022/08/31 00:16:01;;;;;;;;;;;25.10;99.90;;;;;;5071488;28;20366;-73
2022/08/31 00:18:27;;;;;;;;;;;25.20;99.90;;;;;;5080560;28;19915;-74
2022/08/31 00:20:53;;;;;;;;;;;25.20;99.90;;;;;;5073578;28;20380;-74
2022/08/31 00:23:19;;;;;;;;;;;25.10;99.90;;;;;;5069918;28;19920;-71
2022/08/31 00:25:46;;;;;;;;;;;25.10;99.90;;;;;;5069276;28;19931;-73
2022/08/31 00:28:12;;;;;;;;;;;25.10;99.90;;;;;;5061652;28;19923;-72
2022/08/31 00:30:38;;;;;;;;;;;25.10;99.90;;;;;;5076336;28;19904;-72
2022/08/31 00:33:04;;;;;;;;;;;25.10;99.90;;;;;;5080570;28;19908;-73
2022/08/31 00:35:30;;;;;;;;;;;25.10;99.90;;;;;;5076364;28;19953;-72
2022/08/31 00:37:56;;;;;;;;;;;25.10;99.90;;;;;;5070962;28;19913;-74
2022/08/31 00:40:22;;;;;;;;;;;25.10;99.90;;;;;;5070188;28;19914;-73
2022/08/31 00:42:48;;;;;;;;;;;25.10;99.90;;;;;;5067670;28;19904;-71
2022/08/31 00:45:14;;;;;;;;;;;25.10;99.90;;;;;;5068488;28;19908;-73
2022/08/31 00:47:40;;;;;;;;;;;25.10;99.90;;;;;;5075405;28;20579;-73
2022/08/31 00:50:07;;;;;;;;;;;25.00;99.90;;;;;;5077383;28;19904;-73
2022/08/31 00:52:35;;;;;;;;;;;25.10;99.90;;;;;;5053287;28;20008;-74
2022/08/31 00:55:05;;;;;;;;;;;25.10;99.90;;;;;;5060880;28;19904;-74
2022/08/31 00:57:32;;;;;;;;;;;25.00;99.90;;;;;;5070144;28;19908;-71
2022/08/31 00:59:59;;;;;;;;;;;24.90;99.90;;;;;;5078407;28;20285;-70
2022/08/31 01:02:25;;;;;;;;;;;24.80;99.90;;;;;;5070061;28;19909;-71
2022/08/31 01:04:50;;;;;;;;;;;24.80;99.90;;;;;;5076542;28;19958;-70
2022/08/31 01:07:16;;;;;;;;;;;24.70;99.90;;;;;;5077851;28;19919;-70
2022/08/31 01:09:42;;;;;;;;;;;24.70;99.90;;;;;;5075916;28;19919;-71
2022/08/31 01:12:09;;;;;;;;;;;24.70;99.90;;;;;;5082627;28;20404;-70
2022/08/31 01:14:35;;;;;;;;;;;24.80;99.90;;;;;;5075843;28;19950;-71
2022/08/31 01:17:01;;;;;;;;;;;24.80;99.90;;;;;;5074322;28;20411;-70
2022/08/31 01:19:30;;;;;;;;;;;24.80;99.90;;;;;;5083246;28;19955;-69
2022/08/31 01:22:08;;;;;;;;;;;24.80;99.90;;;;;;5075417;28;19920;-70
2022/08/31 01:24:34;;;;;;;;;;;24.80;99.90;;;;;;5070522;28;19913;-70
2022/08/31 01:27:03;;;;;;;;;;;24.80;99.90;;;;;;5081991;28;19918;-71
2022/08/31 01:29:29;;;;;;;;;;;24.80;99.90;;;;;;5075606;28;19916;-70
2022/08/31 01:31:55;;;;;;;;;;;24.70;99.90;;;;;;5071848;28;19916;-70
2022/08/31 01:34:21;;;;;;;;;;;24.70;99.90;;;;;;5086104;28;19909;-70
2022/08/31 01:36:47;;;;;;;;;;;24.70;99.90;;;;;;5082740;28;19912;-70
2022/08/31 01:39:13;;;;;;;;;;;24.70;99.90;;;;;;5079625;28;19924;-70
2022/08/31 01:41:42;;;;;;;;;;;24.70;99.90;;;;;;5092173;28;19919;-70
2022/08/31 01:44:08;;;;;;;;;;;24.70;99.90;;;;;;5061782;28;20231;-69
2022/08/31 01:46:33;;;;;;;;;;;24.80;99.90;;;;;;5050456;28;19915;-69
2022/08/31 01:48:59;;;;;;;;;;;24.70;99.90;;;;;;5072321;28;19919;-68
2022/08/31 01:51:24;;;;;;;;;;;24.70;99.90;;;;;;5083011;28;19958;-69
2022/08/31 01:53:51;;;;;;;;;;;24.60;99.90;;;;;;5073074;28;19908;-69
2022/08/31 01:56:25;;;;;;;;;;;24.70;99.90;;;;;;5059797;28;19912;-69
2022/08/31 01:58:51;;;;;;;;;;;24.70;99.90;;;;;;5073175;28;19909;-71
2022/08/31 02:01:16;;;;;;;;;;;24.70;99.90;;;;;;5075393;28;20378;-70
2022/08/31 02:03:42;;;;;;;;;;;24.70;99.90;;;;;;5071225;28;19983;-69
2022/08/31 02:06:09;;;;;;;;;;;24.80;99.90;;;;;;5072689;28;19963;-69
2022/08/31 02:08:35;;;;;;;;;;;24.80;99.90;;;;;;5078388;28;20086;-71
2022/08/31 02:11:01;;;;;;;;;;;24.80;99.90;;;;;;5074028;28;19962;-69
2022/08/31 02:13:27;;;;;;;;;;;24.80;99.90;;;;;;5071769;28;19912;-69
2022/08/31 02:15:52;;;;;;;;;;;24.80;99.90;;;;;;5069616;28;19962;-69
2022/08/31 02:18:18;;;;;;;;;;;24.80;99.90;;;;;;5071960;28;19908;-71
2022/08/31 02:20:44;;;;;;;;;;;24.80;99.90;;;;;;5072475;28;19909;-70
2022/08/31 02:23:09;;;;;;;;;;;24.80;99.90;;;;;;5080378;28;21099;-71
2022/08/31 02:25:35;;;;;;;;;;;24.80;99.90;;;;;;5072063;28;19916;-70
2022/08/31 02:28:01;;;;;;;;;;;24.70;99.90;;;;;;5086217;28;19928;-71
2022/08/31 02:30:27;;;;;;;;;;;24.70;99.90;;;;;;5071881;28;19912;-70
2022/08/31 02:32:53;;;;;;;;;;;24.70;99.90;;;;;;5062422;28;19909;-69
2022/08/31 02:35:18;;;;;;;;;;;24.80;99.90;;;;;;5080460;28;19934;-71
2022/08/31 02:37:44;;;;;;;;;;;24.70;99.90;;;;;;5071988;28;20347;-70
2022/08/31 02:40:10;;;;;;;;;;;24.80;99.90;;;;;;5075900;28;20335;-70
2022/08/31 02:42:36;;;;;;;;;;;24.80;99.90;;;;;;5078987;28;19912;-71
2022/08/31 02:45:02;;;;;;;;;;;24.80;99.90;;;;;;5073693;28;20278;-70
2022/08/31 02:47:29;;;;;;;;;;;24.80;99.90;;;;;;5082059;28;19959;-70
2022/08/31 02:49:54;;;;;;;;;;;24.80;99.90;;;;;;5049967;28;20336;-70
2022/08/31 02:52:20;;;;;;;;;;;24.80;99.90;;;;;;5053944;28;20065;-70
2022/08/31 02:54:46;;;;;;;;;;;24.90;99.90;;;;;;5068514;28;20291;-70
2022/08/31 02:57:14;;;;;;;;;;;24.90;99.90;;;;;;5084604;28;19958;-69
2022/08/31 02:59:40;;;;;;;;;;;24.80;99.90;;;;;;5076333;28;19908;-69
2022/08/31 03:02:05;;;;;;;;;;;24.80;99.90;;;;;;5069981;28;19931;-69
2022/08/31 03:04:31;;;;;;;;;;;24.80;99.90;;;;;;5070940;28;19908;-69
2022/08/31 03:06:56;;;;;;;;;;;24.80;99.90;;;;;;5082142;28;19916;-70
2022/08/31 03:09:23;;;;;;;;;;;24.80;99.90;;;;;;5073721;28;19912;-70
2022/08/31 03:11:49;;;;;;;;;;;24.90;99.90;;;;;;5071172;28;20365;-70
2022/08/31 03:14:14;;;;;;;;;;;24.90;99.90;;;;;;5052155;28;19908;-69
2022/08/31 03:16:41;;;;;;;;;;;24.90;99.90;;;;;;5080839;28;20282;-69
2022/08/31 03:19:07;;;;;;;;;;;24.90;99.90;;;;;;5074087;28;19912;-70
2022/08/31 03:21:33;;;;;;;;;;;24.80;99.90;;;;;;5063622;28;19935;-71
2022/08/31 03:23:59;;;;;;;;;;;24.90;99.90;;;;;;5073204;28;20333;-69
2022/08/31 03:26:24;;;;;;;;;;;24.90;99.90;;;;;;5071961;28;20378;-70
2022/08/31 03:28:50;;;;;;;;;;;24.80;99.90;;;;;;5068544;28;19912;-69
2022/08/31 03:31:16;;;;;;;;;;;24.80;99.90;;;;;;5071743;28;20437;-70
2022/08/31 03:33:41;;;;;;;;;;;24.90;99.90;;;;;;5070669;28;19916;-70
2022/08/31 03:36:07;;;;;;;;;;;24.90;99.90;;;;;;5061574;28;19916;-72
2022/08/31 03:38:32;;;;;;;;;;;24.80;99.90;;;;;;5066220;28;20362;-71
2022/08/31 03:41:00;;;;;;;;;;;24.50;99.90;;;;;;5071421;28;19955;-71
2022/08/31 03:43:25;;;;;;;;;;;24.40;99.90;;;;;;5082926;28;20257;-70
2022/08/31 03:45:51;;;;;;;;;;;24.40;99.90;;;;;;5043436;28;19908;-71
2022/08/31 03:48:17;;;;;;;;;;;24.30;99.90;;;;;;5069779;28;20405;-72
2022/08/31 03:50:43;;;;;;;;;;;24.30;99.90;;;;;;5070125;28;19947;-73
2022/08/31 03:53:09;;;;;;;;;;;24.40;99.90;;;;;;5067906;28;20063;-72
2022/08/31 03:55:37;;;;;;;;;;;24.40;99.90;;;;;;5076224;28;20281;-72
2022/08/31 03:58:03;;;;;;;;;;;24.40;99.90;;;;;;5080713;28;20354;-71
2022/08/31 04:00:30;;;;;;;;;;;24.40;99.90;;;;;;5068940;28;19908;-72
2022/08/31 04:02:58;;;;;;;;;;;24.40;99.90;;;;;;5070637;28;19908;-71
2022/08/31 04:05:27;;;;;;;;;;;24.40;99.90;;;;;;5068846;28;19915;-70
2022/08/31 04:07:53;;;;;;;;;;;24.30;99.90;;;;;;5075878;28;19920;-72
2022/08/31 04:10:19;;;;;;;;;;;24.10;99.90;;;;;;5070214;28;19931;-71
2022/08/31 04:12:44;;;;;;;;;;;23.90;99.90;;;;;;5070431;28;19912;-71
2022/08/31 04:15:10;;;;;;;;;;;23.80;99.90;;;;;;5068550;28;20007;-72
2022/08/31 04:17:36;;;;;;;;;;;23.80;99.90;;;;;;5069987;28;19909;-73
2022/08/31 04:20:02;;;;;;;;;;;23.80;99.90;;;;;;5078757;28;19912;-72
2022/08/31 04:22:28;;;;;;;;;;;23.90;99.90;;;;;;5069210;28;19912;-72
2022/08/31 04:24:54;;;;;;;;;;;23.90;99.90;;;;;;5071637;28;20377;-71
2022/08/31 04:27:19;;;;;;;;;;;23.90;99.90;;;;;;5068973;28;20409;-71
2022/08/31 04:29:45;;;;;;;;;;;23.90;99.90;;;;;;5070930;28;20011;-71
2022/08/31 04:32:10;;;;;;;;;;;23.80;99.90;;;;;;5083184;28;19922;-72
2022/08/31 04:34:36;;;;;;;;;;;23.70;99.90;;;;;;5073864;28;19913;-72
2022/08/31 04:37:02;;;;;;;;;;;23.70;99.90;;;;;;5072181;28;20350;-71
2022/08/31 04:39:27;;;;;;;;;;;23.60;99.90;;;;;;5068054;28;19946;-72
2022/08/31 04:41:53;;;;;;;;;;;23.60;99.90;;;;;;5070895;28;19931;-72
2022/08/31 04:44:18;;;;;;;;;;;23.60;99.90;;;;;;5067394;28;20353;-71
2022/08/31 04:46:44;;;;;;;;;;;23.70;99.90;;;;;;5071863;28;19905;-71
2022/08/31 04:49:13;;;;;;;;;;;23.70;99.90;;;;;;5049147;28;19919;-71
2022/08/31 04:51:38;;;;;;;;;;;23.70;99.90;;;;;;5047777;28;19963;-72
2022/08/31 04:54:06;;;;;;;;;;;23.80;99.90;;;;;;5069023;28;20002;-71
2022/08/31 04:56:35;;;;;;;;;;;24.00;99.90;;;;;;5069554;28;19909;-71
2022/08/31 04:59:02;;;;;;;;;;;24.00;99.90;;;;;;5068784;28;19912;-72
2022/08/31 05:01:31;;;;;;;;;;;24.00;99.90;;;;;;5069391;28;19935;-72
2022/08/31 05:03:57;;;;;;;;;;;23.90;99.90;;;;;;5070443;28;19912;-74
2022/08/31 05:06:24;;;;;;;;;;;23.80;99.90;;;;;;5068878;28;19931;-72
2022/08/31 05:08:53;;;;;;;;;;;23.80;99.90;;;;;;5069440;28;21076;-71
2022/08/31 05:11:20;;;;;;;;;;;23.70;99.90;;;;;;5069570;28;19918;-72
2022/08/31 05:13:46;;;;;;;;;;;23.80;99.90;;;;;;5070696;28;19915;-73
2022/08/31 05:16:12;;;;;;;;;;;23.80;99.90;;;;;;5069057;28;19909;-72
2022/08/31 05:18:38;;;;;;;;;;;23.80;99.90;;;;;;5070090;28;19912;-72
2022/08/31 05:21:11;;;;;;;;;;;23.60;99.90;;;;;;5082288;28;20260;-71
2022/08/31 05:23:37;;;;;;;;;;;23.50;99.90;;;;;;5056672;28;19920;-71
2022/08/31 05:26:03;;;;;;;;;;;23.50;99.90;;;;;;5067750;28;19908;-72
2022/08/31 05:28:29;;;;;;;;;;;23.50;99.90;;;;;;5069893;28;19924;-71
2022/08/31 05:30:57;;;;;;;;;;;23.70;99.90;;;;;;5069037;28;20263;-72
2022/08/31 05:33:23;;;;;;;;;;;23.80;99.90;;;;;;5070020;28;20073;-71
2022/08/31 05:35:48;;;;;;;;;;;23.90;99.90;;;;;;5069216;28;19904;-72
2022/08/31 05:38:14;;;;;;;;;;;23.90;99.90;;;;;;5069069;28;19912;-71
2022/08/31 05:40:39;;;;;;;;;;;23.90;99.90;;;;;;5066747;28;19908;-72
2022/08/31 05:43:05;;;;;;;;;;;23.90;99.90;;;;;;5080886;28;20539;-72
2022/08/31 05:45:31;;;;;;;;;;;23.90;99.90;;;;;;5065884;28;19909;-73
2022/08/31 05:47:56;;;;;;;;;;;24.10;99.90;;;;;;5068557;28;20327;-74
2022/08/31 05:50:22;;;;;;;;;;;24.20;99.90;;;;;;5072412;28;19909;-72
2022/08/31 05:52:48;;;;;;;;;;;24.30;99.90;;;;;;5071768;28;19905;-72
2022/08/31 05:55:13;;;;;;;;;;;24.30;99.90;;;;;;5067775;28;19909;-73
2022/08/31 05:57:39;;;;;;;;;;;24.40;99.90;;;;;;5071523;28;20008;-73
2022/08/31 06:00:09;;;;;;;;;;;24.50;99.90;;;;;;5079256;28;19928;-73
2022/08/31 06:02:35;;;;;;;;;;;24.60;99.90;;;;;;5076049;28;19974;-73
2022/08/31 06:05:01;;;;;;;;;;;24.60;99.90;;;;;;5076163;28;20154;-72
2022/08/31 06:07:27;;;;;;;;;;;24.60;99.90;;;;;;5070282;28;19970;-73
2022/08/31 06:09:52;;;;;;;;;;;24.60;99.90;;;;;;5072860;28;19909;-72
2022/08/31 06:12:19;;;;;;;;;;;24.70;99.90;;;;;;5067147;28;20242;-72
2022/08/31 06:14:45;;;;;;;;;;;24.70;99.90;;;;;;5083007;28;20333;-71
2022/08/31 06:17:11;;;;;;;;;;;24.60;99.90;;;;;;5082330;28;19916;-70
2022/08/31 06:19:37;;;;;;;;;;;24.50;99.90;;;;;;5059296;28;19934;-71
2022/08/31 06:22:03;;;;;;;;;;;24.40;99.90;;;;;;5066791;28;19948;-72
2022/08/31 06:24:29;;;;;;;;;;;24.40;99.90;;;;;;5085389;28;19920;-71
2022/08/31 06:26:55;;;;;;;;;;;24.30;99.90;;;;;;5083347;28;19908;-71
2022/08/31 06:29:21;;;;;;;;;;;24.40;99.90;;;;;;5081186;28;20029;-72
2022/08/31 06:31:46;;;;;;;;;;;24.50;99.90;;;;;;5065852;28;19939;-70
2022/08/31 06:34:14;;;;;;;;;;;24.60;99.90;;;;;;5071472;28;19914;-71
2022/08/31 06:36:39;;;;;;;;;;;24.60;99.90;;;;;;5081369;28;20336;-69
2022/08/31 06:39:05;;;;;;;;;;;24.60;99.90;;;;;;5055388;28;19944;-71
2022/08/31 06:41:32;;;;;;;;;;;24.70;99.90;;;;;;5079629;28;19904;-71
2022/08/31 06:43:59;;;;;;;;;;;24.70;99.90;;;;;;5056268;28;19931;-71
2022/08/31 06:46:25;;;;;;;;;;;24.70;99.90;;;;;;5080752;28;20003;-71
2022/08/31 06:48:55;;;;;;;;;;;24.70;99.90;;;;;;5072017;28;19912;-70
2022/08/31 06:51:21;;;;;;;;;;;24.80;99.90;;;;;;5079107;28;20447;-69
2022/08/31 06:53:46;;;;;;;;;;;24.70;99.90;;;;;;5072415;28;20003;-71
2022/08/31 06:56:14;;;;;;;;;;;24.80;99.90;;;;;;5067249;28;19931;-70
2022/08/31 06:58:40;;;;;;;;;;;24.70;99.90;;;;;;5071692;28;19912;-70
2022/08/31 07:01:10;;;;;;;;;;;24.80;99.90;;;;;;5084212;28;20252;-71
2022/08/31 07:03:37;;;;;;;;;;;25.00;99.90;;;;;;5072325;28;19908;-69
2022/08/31 07:06:08;;;;;;;;;;;25.10;99.90;;;;;;5083422;28;19915;-70
2022/08/31 07:08:35;;;;;;;;;;;25.20;99.90;;;;;;5073456;28;19908;-69
2022/08/31 07:11:01;;;;;;;;;;;25.30;99.90;;;;;;5070867;28;19934;-70
2022/08/31 07:13:27;;;;;;;;;;;25.40;99.90;;;;;;5067152;28;19943;-69
2022/08/31 07:16:03;;;;;;;;;;;25.60;99.90;;;;;;5071828;28;20198;-68
2022/08/31 07:18:29;;;;;;;;;;;25.60;99.90;;;;;;5071589;28;20267;-68
2022/08/31 07:21:04;;;;;;;;;;;25.80;99.90;;;;;;5066919;28;20017;-66
2022/08/31 07:23:29;;;;;;;;;;;25.80;99.90;;;;;;5080461;28;19915;-68
2022/08/31 07:25:56;;;;;;;;;;;25.90;99.90;;;;;;5076386;28;19916;-67
2022/08/31 07:28:23;;;;;;;;;;;25.90;99.90;;;;;;5079394;28;19935;-70
2022/08/31 07:30:49;;;;;;;;;;;25.90;99.90;;;;;;5071975;28;19958;-69
2022/08/31 07:33:15;;;;;;;;;;;25.90;99.90;;;;;;5074182;28;19912;-69
2022/08/31 07:35:41;;;;;;;;;;;25.90;99.90;;;;;;5065891;28;19909;-68
2022/08/31 07:43:35;;;;;;;;;;;26.10;99.90;;;;;;5085227;28;19961;-69
2022/08/31 07:46:01;;;;;;;;;;;26.00;99.90;;;;;;5072163;28;19923;-69
2022/08/31 07:48:26;;;;;;;;;;;26.00;99.90;;;;;;5069934;28;19916;-70
2022/08/31 07:50:53;;;;;;;;;;;25.90;99.90;;;;;;5068021;28;19944;-69
2022/08/31 07:53:19;;;;;;;;;;;25.90;99.90;;;;;;5072124;28;19916;-70
2022/08/31 07:55:46;;;;;;;;;;;25.80;99.90;;;;;;5069124;28;19909;-68
2022/08/31 07:58:14;;;;;;;;;;;25.70;99.90;;;;;;5067805;28;19908;-68
2022/08/31 08:00:42;;;;;;;;;;;25.50;99.90;;;;;;5065771;28;19916;-68
2022/08/31 08:03:11;;;;;;;;;;;25.30;99.90;;;;;;5080373;28;19939;-74
2022/08/31 08:05:40;;;;;;;;;;;25.10;99.90;;;;;;5069413;28;19908;-69
2022/08/31 08:08:07;;;;;;;;;;;25.00;99.90;;;;;;5061487;28;19916;-69
2022/08/31 08:10:33;;;;;;;;;;;24.80;99.90;;;;;;5074502;28;19920;-69
2022/08/31 08:13:04;;;;;;;;;;;24.80;99.90;;;;;;5069329;28;19908;-69
2022/08/31 08:15:31;;;;;;;;;;;24.60;99.90;;;;;;5079433;28;20006;-72
2022/08/31 08:17:57;;;;;;;;;;;24.60;99.90;;;;;;5073843;28;19912;-69
2022/08/31 08:20:23;;;;;;;;;;;24.60;99.90;;;;;;5068332;28;20014;-68
2022/08/31 08:22:49;;;;;;;;;;;24.70;99.90;;;;;;5074277;28;20007;-68
2022/08/31 08:25:15;;;;;;;;;;;24.70;99.90;;;;;;5067059;28;19995;-67
2022/08/31 08:27:41;;;;;;;;;;;24.80;99.90;;;;;;5076645;28;20003;-69
2022/08/31 08:30:08;;;;;;;;;;;24.80;99.90;;;;;;5070312;28;19918;-69
2022/08/31 08:32:34;;;;;;;;;;;24.80;99.90;;;;;;5075832;28;19908;-68
2022/08/31 08:35:00;;;;;;;;;;;24.80;99.90;;;;;;5076053;28;19908;-69
2022/08/31 08:37:26;;;;;;;;;;;24.90;99.90;;;;;;5066825;28;19970;-68
2022/08/31 08:39:52;;;;;;;;;;;24.80;99.90;;;;;;5070827;28;19907;-71
2022/08/31 08:42:19;;;;;;;;;;;24.80;99.90;;;;;;5068438;28;20384;-69
2022/08/31 08:44:45;;;;;;;;;;;24.80;99.90;;;;;;5068217;28;19952;-68
2022/08/31 08:47:14;;;;;;;;;;;24.70;99.90;;;;;;5070101;28;19988;-74
2022/08/31 08:49:44;;;;;;;;;;;24.70;99.90;;;;;;5066541;28;20386;-67
2022/08/31 08:52:15;;;;;;;;;;;24.70;99.90;;;;;;5071323;28;19916;-68
2022/08/31 08:54:44;;;;;;;;;;;24.70;99.90;;;;;;5055232;28;19908;-69
2022/08/31 08:57:12;;;;;;;;;;;24.70;99.90;;;;;;5069704;28;19983;-68
2022/08/31 08:59:45;;;;;;;;;;;24.80;99.90;;;;;;5070878;28;19909;-69
2022/08/31 09:02:33;;;;;;;;;;;24.80;99.90;;;;;;5069776;28;19909;-70
2022/08/31 09:04:58;;;;;;;;;;;24.70;99.90;;;;;;5073263;28;20381;-67
2022/08/31 09:07:30;;;;;;;;;;;24.60;99.90;;;;;;5075173;28;19908;-70
2022/08/31 09:10:19;;;;;;;;;;;24.40;99.90;;;;;;5077594;28;20012;-68
2022/08/31 09:12:45;;;;;;;;;;;24.20;99.90;;;;;;5063605;28;19912;-67
2022/08/31 09:15:17;;;;;;;;;;;24.00;99.90;;;;;;5075674;28;19908;-71
2022/08/31 09:17:55;;;;;;;;;;;23.90;99.90;;;;;;5074862;28;19923;-68
2022/08/31 09:20:21;;;;;;;;;;;23.90;99.90;;;;;;5069032;28;19930;-68
2022/08/31 09:22:51;;;;;;;;;;;23.80;99.90;;;;;;5074936;28;19913;-69
2022/08/31 09:25:18;;;;;;;;;;;23.70;99.90;;;;;;5073121;28;19912;-68
2022/08/31 09:27:56;;;;;;;;;;;23.60;99.90;;;;;;5073635;28;19916;-69
2022/08/31 09:30:40;;;;;;;;;;;23.50;99.90;;;;;;5046534;28;19995;-69
2022/08/31 09:33:14;;;;;;;;;;;23.30;99.90;;;;;;5077360;28;19909;-71
2022/08/31 09:35:40;;;;;;;;;;;23.20;99.90;;;;;;5075054;28;19908;-71
2022/08/31 09:38:10;;;;;;;;;;;23.20;99.90;;;;;;5070343;28;19915;-69
2022/08/31 09:40:43;;;;;;;;;;;23.20;99.90;;;;;;5070014;28;19904;-68
2022/08/31 09:43:09;;;;;;;;;;;23.10;99.90;;;;;;5067049;28;19908;-68
2022/08/31 09:45:36;;;;;;;;;;;23.10;99.90;;;;;;5052689;28;19916;-68
2022/08/31 09:48:06;;;;;;;;;;;23.10;99.90;;;;;;5072028;28;19916;-68
2022/08/31 09:50:34;;;;;;;;;;;23.10;99.90;;;;;;5069079;28;19961;-67
2022/08/31 09:56:17;;;;;;;;;;;23.00;99.90;;;;;;5075764;28;19964;-68
2022/08/31 09:58:56;;;;;;;;;;;23.00;99.90;;;;;;5074213;28;19905;-69
2022/08/31 10:01:21;;;;;;;;;;;23.00;99.90;;;;;;5073823;28;19937;-68
2022/08/31 10:03:48;;;;;;;;;;;23.20;99.90;;;;;;5073565;28;19910;-70
2022/08/31 10:06:40;;;;;;;;;;;23.30;99.90;;;;;;5074186;28;20275;-68
2022/08/31 10:09:10;;;;;;;;;;;23.40;99.90;;;;;;5072925;28;19962;-70
2022/08/31 10:11:37;;;;;;;;;;;23.50;99.90;;;;;;5079828;28;19908;-68
2022/08/31 10:14:25;;;;;;;;;;;23.50;99.90;;;;;;5072593;28;19919;-69
2022/08/31 10:16:54;;;;;;;;;;;23.50;99.90;;;;;;5070647;28;20259;-69
2022/08/31 10:19:32;;;;;;;;;;;23.50;99.90;;;;;;5077948;28;19907;-70
2022/08/31 10:22:06;;;;;;;;;;;23.40;99.90;;;;;;5076388;28;19916;-68
2022/08/31 10:24:42;;;;;;;;;;;23.40;99.90;;;;;;5073757;28;19923;-69
2022/08/31 10:27:17;;;;;;;;;;;23.40;99.90;;;;;;5073105;28;19959;-69
2022/08/31 10:29:55;;;;;;;;;;;23.40;99.90;;;;;;5071875;28;19920;-68
2022/08/31 10:32:39;;;;;;;;;;;23.40;99.90;;;;;;5068821;28;19923;-71
2022/08/31 10:35:08;;;;;;;;;;;23.40;99.90;;;;;;5072175;28;20444;-71
2022/08/31 10:37:57;;;;;;;;;;;23.60;99.90;;;;;;5073550;28;19915;-69
2022/08/31 10:40:28;;;;;;;;;;;23.70;99.90;;;;;;5064419;28;19948;-70
2022/08/31 10:43:03;;;;;;;;;;;23.60;99.90;;;;;;5070394;28;20258;-69
2022/08/31 10:45:32;;;;;;;;;;;23.70;99.90;;;;;;5068460;28;19950;-71
2022/08/31 10:47:58;;;;;;;;;;;23.70;99.90;;;;;;5072036;28;20024;-71
2022/08/31 10:50:38;;;;;;;;;;;23.70;99.90;;;;;;5074494;28;19951;-71
2022/08/31 10:53:12;;;;;;;;;;;23.80;99.90;;;;;;5085999;28;19982;-70
2022/08/31 10:56:01;;;;;;;;;;;23.70;99.90;;;;;;5077001;28;20608;-70
2022/08/31 10:58:45;;;;;;;;;;;23.70;99.90;;;;;;5066171;28;19915;-68
2022/08/31 11:01:11;;;;;;;;;;;23.50;99.90;;;;;;5073242;28;20016;-68
2022/08/31 11:03:55;;;;;;;;;;;23.30;99.90;;;;;;5069726;28;19958;-70
2022/08/31 11:06:24;;;;;;;;;;;23.20;99.90;;;;;;5069495;28;19908;-67
2022/08/31 11:08:54;;;;;;;;;;;23.20;99.90;;;;;;5080639;28;19920;-68
2022/08/31 11:11:29;;;;;;;;;;;23.40;99.90;;;;;;5066153;28;19908;-69
2022/08/31 11:14:04;;;;;;;;;;;23.80;99.90;;;;;;5072273;28;19908;-68
2022/08/31 11:16:37;;;;;;;;;;;24.10;99.90;;;;;;5084399;28;19912;-69
2022/08/31 11:19:15;;;;;;;;;;;24.40;99.90;;;;;;5081076;28;19919;-69
2022/08/31 11:21:59;;;;;;;;;;;24.50;99.90;;;;;;5081555;28;20260;-68
2022/08/31 11:24:33;;;;;;;;;;;24.70;99.90;;;;;;5070662;28;20397;-68
2022/08/31 11:27:22;;;;;;;;;;;24.90;99.90;;;;;;5080207;28;19904;-69
2022/08/31 11:30:01;;;;;;;;;;;25.00;99.90;;;;;;5062638;28;19958;-69
2022/08/31 11:32:34;;;;;;;;;;;25.40;99.90;;;;;;5074628;28;20862;-68
2022/08/31 11:35:07;;;;;;;;;;;25.70;99.90;;;;;;5071200;28;19908;-70
2022/08/31 11:37:49;;;;;;;;;;;26.00;99.90;;;;;;5075180;28;20269;-67
2022/08/31 11:40:40;;;;;;;;;;;26.20;99.90;;;;;;5085632;28;19915;-69
2022/08/31 11:43:26;;;;;;;;;;;26.30;99.90;;;;;;5077610;28;19916;-70
2022/08/31 11:45:53;;;;;;;;;;;26.10;99.90;;;;;;5076194;28;20277;-70
2022/08/31 11:48:37;;;;;;;;;;;26.10;99.90;;;;;;5080520;28;19915;-70
2022/08/31 11:51:06;;;;;;;;;;;26.20;99.90;;;;;;5073778;28;19908;-69
2022/08/31 11:53:34;;;;;;;;;;;26.40;99.90;;;;;;5073239;28;19916;-70
2022/08/31 11:56:02;;;;;;;;;;;26.50;99.90;;;;;;5075704;28;19915;-71
2022/08/31 11:58:32;;;;;;;;;;;26.10;99.90;;;;;;5078132;28;20001;-71
2022/08/31 12:01:10;;;;;;;;;;;26.00;99.90;;;;;;5071753;28;20766;-68
2022/08/31 12:03:44;;;;;;;;;;;25.90;99.90;;;;;;5064878;28;19912;-68
2022/08/31 12:06:30;;;;;;;;;;;25.90;99.90;;;;;;5065366;28;19917;-73
2022/08/31 12:09:14;;;;;;;;;;;26.30;99.90;;;;;;5063503;28;19916;-69
2022/08/31 12:11:46;;;;;;;;;;;26.60;99.90;;;;;;5059744;28;19909;-70
2022/08/31 12:14:22;;;;;;;;;;;26.70;99.90;;;;;;5069275;28;19908;-69
2022/08/31 12:16:59;;;;;;;;;;;26.30;99.90;;;;;;5069786;28;19947;-68
2022/08/31 12:25:26;;;;;;;;;;;26.00;99.90;;;;;;5074222;28;20331;-67
2022/08/31 12:28:00;;;;;;;;;;;26.50;99.90;;;;;;5080003;28;20510;-68
2022/08/31 12:30:26;;;;;;;;;;;26.50;99.90;;;;;;5077829;28;20342;-68
2022/08/31 12:33:10;;;;;;;;;;;26.50;99.90;;;;;;5068122;28;19915;-69
2022/08/31 12:35:36;;;;;;;;;;;26.60;99.90;;;;;;5077935;28;20303;-69
2022/08/31 12:38:05;;;;;;;;;;;26.70;99.90;;;;;;5082184;28;19995;-68
2022/08/31 12:40:32;;;;;;;;;;;26.60;99.90;;;;;;5083932;28;20163;-67
2022/08/31 12:43:13;;;;;;;;;;;26.60;99.90;;;;;;5077312;28;20380;-68
2022/08/31 12:45:57;;;;;;;;;;;26.60;99.90;;;;;;5083899;28;19915;-68
2022/08/31 12:48:23;;;;;;;;;;;26.60;99.90;;;;;;5081014;28;20008;-68
2022/08/31 12:51:21;;;;;;;;;;;26.50;99.90;;;;;;5066259;28;19932;-68
2022/08/31 12:54:19;;;;;;;;;;;26.60;99.90;;;;;;5029936;28;20034;-67
2022/08/31 12:56:58;;;;;;;;;;;26.40;99.90;;;;;;5052893;28;19915;-67
2022/08/31 12:59:42;;;;;;;;;;;26.40;99.90;;;;;;5078287;28;20156;-68
2022/08/31 13:02:10;;;;;;;;;;;26.60;99.90;;;;;;5070932;28;19939;-67
2022/08/31 13:04:40;;;;;;;;;;;26.70;99.90;;;;;;5070572;28;20011;-69
2022/08/31 13:07:32;;;;;;;;;;;26.90;99.90;;;;;;5069027;28;19904;-68
2022/08/31 13:10:21;;;;;;;;;;;27.10;99.90;;;;;;5065928;28;20346;-68
2022/08/31 13:12:57;;;;;;;;;;;27.00;99.90;;;;;;5063790;28;19915;-70
2022/08/31 13:15:32;;;;;;;;;;;27.00;99.90;;;;;;5071279;28;20324;-69
2022/08/31 13:18:00;;;;;;;;;;;27.10;99.90;;;;;;5061047;28;20000;-67
2022/08/31 13:20:28;;;;;;;;;;;27.20;99.90;;;;;;5079324;28;19994;-69
2022/08/31 13:22:55;;;;;;;;;;;27.00;99.90;;;;;;5073093;28;19931;-68
2022/08/31 13:25:35;;;;;;;;;;;27.00;99.90;;;;;;5077948;28;19923;-68
2022/08/31 13:28:03;;;;;;;;;;;27.20;99.90;;;;;;5072509;28;19951;-69
2022/08/31 13:30:30;;;;;;;;;;;27.40;99.90;;;;;;5072197;28;20289;-68
2022/08/31 13:32:56;;;;;;;;;;;27.60;99.90;;;;;;5078310;28;19909;-68
2022/08/31 13:35:27;;;;;;;;;;;27.70;99.90;;;;;;5093615;28;20645;-70
2022/08/31 13:38:03;;;;;;;;;;;27.70;99.90;;;;;;5068094;28;20332;-68
2022/08/31 13:40:32;;;;;;;;;;;27.90;99.90;;;;;;5092622;28;20007;-67
2022/08/31 13:42:58;;;;;;;;;;;28.20;99.90;;;;;;5079213;28;19962;-68
2022/08/31 13:45:28;;;;;;;;;;;28.30;99.90;;;;;;5060698;28;19916;-67
2022/08/31 13:48:23;;;;;;;;;;;28.20;99.90;;;;;;5064155;28;20102;-72
2022/08/31 13:50:50;;;;;;;;;;;28.10;99.90;;;;;;5072722;28;19904;-68
2022/08/31 13:53:38;;;;;;;;;;;27.80;99.90;;;;;;5089721;28;20250;-69
2022/08/31 13:59:22;;;;;;;;;;;27.90;99.90;;;;;;5075233;28;20437;-68
2022/08/31 14:01:49;;;;;;;;;;;28.00;99.90;;;;;;5080720;28;19912;-68
2022/08/31 14:04:47;;;;;;;;;;;28.10;99.90;;;;;;5083176;28;19934;-70
2022/08/31 14:07:20;;;;;;;;;;;28.30;99.90;;;;;;5074536;28;20003;-67
2022/08/31 14:09:52;;;;;;;;;;;28.60;99.90;;;;;;5083121;28;19998;-68
2022/08/31 14:12:20;;;;;;;;;;;28.80;99.90;;;;;;5072174;28;19933;-69
2022/08/31 14:14:47;;;;;;;;;;;29.00;99.90;;;;;;5081733;28;20393;-69
2022/08/31 14:17:17;;;;;;;;;;;29.10;99.90;;;;;;5082859;28;19915;-70
2022/08/31 14:19:43;;;;;;;;;;;29.20;99.90;;;;;;5082953;28;19904;-68
2022/08/31 14:22:16;;;;;;;;;;;29.50;99.90;;;;;;5073406;28;19908;-69
2022/08/31 14:24:42;;;;;;;;;;;29.60;99.90;;;;;;5072440;28;19930;-67
2022/08/31 14:27:10;;;;;;;;;;;29.70;99.90;;;;;;5077433;28;20354;-70
2022/08/31 14:29:39;;;;;;;;;;;29.60;99.90;;;;;;5076428;28;19962;-68
2022/08/31 14:32:05;;;;;;;;;;;29.40;99.90;;;;;;5076186;28;19963;-71
2022/08/31 14:34:32;;;;;;;;;;;29.50;99.90;;;;;;5073641;28;20002;-69
2022/08/31 14:37:05;;;;;;;;;;;29.30;99.90;;;;;;5073406;28;20450;-69
2022/08/31 14:39:31;;;;;;;;;;;29.20;99.90;;;;;;5073583;28;19908;-70
2022/08/31 14:42:04;;;;;;;;;;;29.20;99.90;;;;;;5074654;28;19908;-69
2022/08/31 14:44:32;;;;;;;;;;;29.30;99.90;;;;;;5059240;28;20386;-70
2022/08/31 14:46:58;;;;;;;;;;;29.20;99.90;;;;;;5088182;28;19971;-69
2022/08/31 14:49:24;;;;;;;;;;;29.30;99.90;;;;;;5089782;28;19987;-69
2022/08/31 14:51:50;;;;;;;;;;;29.20;99.90;;;;;;5088036;28;19961;-70